Time;durP1;ratioP1;P1;durP2;ratioP2;P2;SDS_P1;SDS_P2;PMS_P1;PMS_P2;Temp;Humidity;BMP_temperature;BMP_pressure;BME280_temperature;BME280_humidity;BME280_pressure;Samples;Min_cycle;Max_cycle;Signal;HPM_P1;HPM_P2
2022/09/16 00:02:22;;;;;;;5.70;2.33;;;;;;;;;;6221762;28;20195;-79
2022/09/16 00:05:25;;;;;;;6.68;2.17;;;;;;;;;;6205248;28;20125;-79
2022/09/16 00:08:26;;;;;;;4.70;2.20;;;;;;;;;;6185304;28;20125;-79
2022/09/16 00:11:33;;;;;;;5.85;2.10;;;;;;;;;;6190908;28;20182;-79
2022/09/16 00:14:34;;;;;;;5.07;1.75;;;;;;;;;;6178849;28;20634;-79
2022/09/16 00:17:37;;;;;;;2.60;1.60;;;;;;;;;;6190027;28;20092;-79
2022/09/16 00:20:47;;;;;;;5.93;1.70;;;;;;;;;;6184032;28;20057;-79
2022/09/16 00:23:49;;;;;;;3.20;1.60;;;;;;;;;;6186873;28;20048;-79
2022/09/16 00:26:50;;;;;;;4.43;1.50;;;;;;;;;;6190695;28;20049;-79
2022/09/16 00:29:52;;;;;;;4.97;1.50;;;;;;;;;;6197363;28;20078;-78
2022/09/16 00:32:54;;;;;;;4.07;1.75;;;;;;;;;;6192932;28;20046;-78
2022/09/16 00:36:12;;;;;;;5.80;1.52;;;;;;;;;;6195883;28;20098;-79
2022/09/16 00:39:14;;;;;;;3.25;1.70;;;;;;;;;;6202362;28;20039;-79
2022/09/16 00:42:17;;;;;;;2.47;1.50;;;;;;;;;;6192836;28;20132;-79
2022/09/16 00:45:20;;;;;;;;;;;;;;;;;;6191497;28;20046;-79
2022/09/16 00:48:24;;;;;;;4.30;1.27;;;;;;;;;;6217354;28;20702;-79
2022/09/16 00:51:26;;;;;;;7.18;1.80;;;;;;;;;;6216630;28;20041;-79
2022/09/16 00:54:29;;;;;;;5.73;1.47;;;;;;;;;;6219229;28;20399;-78
2022/09/16 00:57:31;;;;;;;4.85;1.45;;;;;;;;;;6231452;28;20052;-78
2022/09/16 01:00:33;;;;;;;5.47;1.38;;;;;;;;;;6201891;28;20052;-79
2022/09/16 01:03:43;;;;;;;5.65;1.63;;;;;;;;;;6192484;28;20050;-78
2022/09/16 01:06:44;;;;;;;5.10;1.42;;;;;;;;;;6198581;28;20145;-78
2022/09/16 01:09:46;;;;;;;3.85;1.52;;;;;;;;;;6213284;28;20173;-79
2022/09/16 01:12:54;;;;;;;3.10;1.30;;;;;;;;;;6213845;28;20074;-78
2022/09/16 01:16:10;;;;;;;5.38;1.33;;;;;;;;;;6200934;28;20059;-79
2022/09/16 01:19:18;;;;;;;4.75;1.40;;;;;;;;;;6188883;28;20097;-78
2022/09/16 01:22:41;;;;;;;3.25;1.38;;;;;;;;;;6189773;28;20114;-79
2022/09/16 01:26:19;;;;;;;3.58;1.55;;;;;;;;;;6194231;28;20074;-79
2022/09/16 01:29:39;;;;;;;4.45;1.50;;;;;;;;;;6202179;28;20540;-79
2022/09/16 01:33:04;;;;;;;2.42;1.00;;;;;;;;;;6213967;28;20133;-79
2022/09/16 01:36:36;;;;;;;4.57;1.58;;;;;;;;;;6213737;28;20132;-79
2022/09/16 01:39:58;;;;;;;4.68;1.10;;;;;;;;;;6188383;28;20049;-78
2022/09/16 01:43:24;;;;;;;5.35;1.25;;;;;;;;;;6191732;28;20072;-78
2022/09/16 01:46:38;;;;;;;2.97;1.20;;;;;;;;;;6205773;28;20480;-79
2022/09/16 01:49:59;;;;;;;2.28;1.30;;;;;;;;;;6192973;28;20066;-79
2022/09/16 01:53:08;;;;;;;5.30;1.42;;;;;;;;;;6189759;28;20050;-78
2022/09/16 01:56:45;;;;;;;4.45;1.60;;;;;;;;;;6214142;28;20617;-79
2022/09/16 01:59:56;;;;;;;2.08;1.40;;;;;;;;;;6209155;28;20050;-79
2022/09/16 02:03:10;;;;;;;4.00;1.58;;;;;;;;;;6199300;28;20121;-78
2022/09/16 02:06:19;;;;;;;3.72;1.38;;;;;;;;;;6190778;28;20113;-78
2022/09/16 02:09:45;;;;;;;4.82;1.65;;;;;;;;;;6196448;28;20053;-79
2022/09/16 02:12:51;;;;;;;2.70;1.58;;;;;;;;;;6189959;28;20137;-79
2022/09/16 02:15:59;;;;;;;4.35;1.63;;;;;;;;;;6216915;28;20113;-78
2022/09/16 02:19:07;;;;;;;5.03;1.88;;;;;;;;;;6215290;28;20106;-78
2022/09/16 02:22:14;;;;;;;5.78;1.75;;;;;;;;;;6213885;28;20049;-78
2022/09/16 02:25:18;;;;;;;3.15;1.50;;;;;;;;;;6210757;28;22165;-79
2022/09/16 02:28:25;;;;;;;3.80;1.45;;;;;;;;;;6206745;28;20185;-78
2022/09/16 02:31:32;;;;;;;5.97;1.90;;;;;;;;;;6213927;28;20050;-78
2022/09/16 02:34:44;;;;;;;4.32;1.67;;;;;;;;;;6204433;28;20050;-78
2022/09/16 02:37:54;;;;;;;4.38;1.65;;;;;;;;;;6186030;28;20117;-79
2022/09/16 02:40:58;;;;;;;4.20;1.73;;;;;;;;;;6196081;28;20050;-79
2022/09/16 02:44:01;;;;;;;5.57;1.40;;;;;;;;;;6209763;28;20125;-78
2022/09/16 02:47:16;;;;;;;3.80;1.30;;;;;;;;;;6194041;28;20077;-78
2022/09/16 02:50:31;;;;;;;4.53;1.13;;;;;;;;;;6202679;28;20149;-78
2022/09/16 02:54:00;;;;;;;3.78;1.40;;;;;;;;;;6193074;28;20050;-78
2022/09/16 02:57:03;;;;;;;3.67;1.27;;;;;;;;;;6186970;28;20038;-79
2022/09/16 03:00:06;;;;;;;3.25;1.13;;;;;;;;;;6213645;28;20046;-78
2022/09/16 03:03:08;;;;;;;3.35;1.92;;;;;;;;;;6188064;28;20189;-78
2022/09/16 03:06:37;;;;;;;5.07;1.60;;;;;;;;;;6188364;28;20042;-78
2022/09/16 03:09:42;;;;;;;4.43;1.40;;;;;;;;;;6217500;28;20556;-78
2022/09/16 03:13:20;;;;;;;2.72;1.33;;;;;;;;;;6199231;28;20551;-78
2022/09/16 03:16:40;;;;;;;2.70;1.38;;;;;;;;;;6208250;28;20054;-79
2022/09/16 03:20:06;;;;;;;5.28;1.50;;;;;;;;;;6193609;28;20061;-79
2022/09/16 03:23:16;;;;;;;4.40;1.35;;;;;;;;;;6202318;28;20611;-79
2022/09/16 03:26:44;;;;;;;4.38;1.30;;;;;;;;;;6213071;28;20053;-78
2022/09/16 03:29:52;;;;;;;2.35;1.17;;;;;;;;;;6203950;28;20053;-79
2022/09/16 03:33:03;;;;;;;2.03;1.02;;;;;;;;;;6203101;28;20117;-79
2022/09/16 03:36:08;;;;;;;2.63;1.30;;;;;;;;;;6202461;28;20126;-78
2022/09/16 03:39:10;;;;;;;3.72;1.20;;;;;;;;;;6212062;28;20050;-79
2022/09/16 03:42:12;;;;;;;2.55;1.00;;;;;;;;;;6227117;28;20041;-79
2022/09/16 03:45:18;;;;;;;2.58;1.10;;;;;;;;;;6212552;28;20124;-78
2022/09/16 03:48:19;;;;;;;4.45;1.25;;;;;;;;;;6226865;28;20052;-78
2022/09/16 03:51:22;;;;;;;3.75;1.52;;;;;;;;;;6212686;28;20515;-79
2022/09/16 03:54:24;;;;;;;;;;;;;;;;;;6213407;28;20419;-78
2022/09/16 03:57:27;;;;;;;1.50;1.15;;;;;;;;;;6214143;28;20016;-78
2022/09/16 04:00:29;;;;;;;1.92;0.80;;;;;;;;;;6212743;28;20061;-79
2022/09/16 04:03:31;;;;;;;2.85;1.10;;;;;;;;;;6228008;28;20053;-78
2022/09/16 04:06:34;;;;;;;;;;;;;;;;;;6218513;28;20050;-79
2022/09/16 04:09:36;;;;;;;5.18;1.08;;;;;;;;;;6214800;28;19926;-78
2022/09/16 04:12:37;;;;;;;2.85;0.90;;;;;;;;;;6219768;28;20058;-78
2022/09/16 04:15:39;;;;;;;4.90;1.17;;;;;;;;;;6214359;28;20042;-79
2022/09/16 04:18:41;;;;;;;7.75;1.42;;;;;;;;;;6205406;28;20463;-79
2022/09/16 04:21:42;;;;;;;3.15;1.20;;;;;;;;;;6217692;28;20042;-79
2022/09/16 04:24:44;;;;;;;1.90;0.85;;;;;;;;;;6216518;28;20046;-79
2022/09/16 04:27:46;;;;;;;6.22;1.23;;;;;;;;;;6219573;28;20048;-79
2022/09/16 04:30:47;;;;;;;3.22;1.13;;;;;;;;;;6216072;28;20051;-81
2022/09/16 04:33:49;;;;;;;4.90;1.30;;;;;;;;;;6215964;28;20785;-81
2022/09/16 04:36:51;;;;;;;2.45;1.15;;;;;;;;;;6225103;28;20041;-81
2022/09/16 04:39:53;;;;;;;3.55;0.93;;;;;;;;;;6213462;28;20454;-81
2022/09/16 04:42:54;;;;;;;4.80;1.27;;;;;;;;;;6211806;28;20041;-80
2022/09/16 04:45:56;;;;;;;6.28;1.30;;;;;;;;;;6186250;28;20141;-80
2022/09/16 04:48:59;;;;;;;3.78;1.45;;;;;;;;;;6202302;28;20513;-81
2022/09/16 04:52:01;;;;;;;3.13;1.40;;;;;;;;;;6190631;28;20130;-80
2022/09/16 04:55:03;;;;;;;5.60;1.63;;;;;;;;;;6193496;28;20046;-80
2022/09/16 04:58:05;;;;;;;4.43;1.80;;;;;;;;;;6213659;28;20052;-80
2022/09/16 05:01:12;;;;;;;5.03;1.50;;;;;;;;;;6210409;28;20042;-80
2022/09/16 05:04:14;;;;;;;6.90;2.10;;;;;;;;;;6188631;28;20069;-80
2022/09/16 05:07:15;;;;;;;8.38;2.50;;;;;;;;;;6207194;28;20037;-80
2022/09/16 05:10:17;;;;;;;6.18;2.70;;;;;;;;;;6199440;28;20058;-80
2022/09/16 05:13:18;;;;;;;10.25;2.85;;;;;;;;;;6215248;28;20049;-80
2022/09/16 05:16:22;;;;;;;7.85;3.00;;;;;;;;;;6211750;28;20052;-80
2022/09/16 05:19:26;;;;;;;3.85;2.40;;;;;;;;;;6226236;28;20046;-80
2022/09/16 05:22:28;;;;;;;5.82;2.83;;;;;;;;;;6212519;28;20107;-81
2022/09/16 05:25:32;;;;;;;4.72;2.85;;;;;;;;;;6193034;28;20133;-80
2022/09/16 05:28:34;;;;;;;7.55;4.15;;;;;;;;;;6182549;28;20124;-80
2022/09/16 05:31:38;;;;;;;6.23;3.30;;;;;;;;;;6208535;28;20042;-80
2022/09/16 05:34:40;;;;;;;6.60;3.58;;;;;;;;;;6212952;28;20054;-81
2022/09/16 05:37:41;;;;;;;10.10;3.97;;;;;;;;;;6207791;28;20131;-80
2022/09/16 05:40:43;;;;;;;6.40;4.00;;;;;;;;;;6196331;28;20092;-79
2022/09/16 05:43:44;;;;;;;7.07;3.80;;;;;;;;;;6194220;28;20042;-80
2022/09/16 05:46:46;;;;;;;7.20;3.83;;;;;;;;;;6183321;28;20157;-82
2022/09/16 05:49:48;;;;;;;8.02;3.50;;;;;;;;;;6188693;28;20042;-79
2022/09/16 05:52:50;;;;;;;9.45;4.07;;;;;;;;;;6181897;28;20115;-79
2022/09/16 05:56:03;;;;;;;9.55;4.10;;;;;;;;;;6180244;28;20053;-78
2022/09/16 05:59:05;;;;;;;7.65;4.30;;;;;;;;;;6178575;28;21401;-79
2022/09/16 06:02:07;;;;;;;5.38;3.78;;;;;;;;;;6181820;28;20677;-77
2022/09/16 06:05:09;;;;;;;6.20;3.80;;;;;;;;;;6178281;28;20126;-79
2022/09/16 06:08:11;;;;;;;7.47;4.50;;;;;;;;;;6210900;28;20556;-79
2022/09/16 06:11:13;;;;;;;5.55;3.80;;;;;;;;;;6207809;28;20481;-79
2022/09/16 06:14:15;;;;;;;8.48;4.00;;;;;;;;;;6196667;28;20121;-79
2022/09/16 06:17:17;;;;;;;5.18;4.18;;;;;;;;;;6185998;28;20102;-80
2022/09/16 06:20:19;;;;;;;5.28;3.95;;;;;;;;;;6190004;28;20038;-79
2022/09/16 06:23:21;;;;;;;6.95;3.60;;;;;;;;;;6188782;28;20051;-79
2022/09/16 06:26:25;;;;;;;4.72;3.30;;;;;;;;;;6181807;28;20100;-79
2022/09/16 06:29:26;;;;;;;4.68;3.17;;;;;;;;;;6182554;28;20046;-80
2022/09/16 06:32:31;;;;;;;7.25;3.03;;;;;;;;;;6184141;28;20050;-80
2022/09/16 06:35:34;;;;;;;3.70;2.60;;;;;;;;;;6182836;28;20137;-80
2022/09/16 06:38:36;;;;;;;4.53;2.40;;;;;;;;;;6184334;28;20465;-79
2022/09/16 06:41:37;;;;;;;5.20;2.20;;;;;;;;;;6179671;28;20101;-80
2022/09/16 06:44:40;;;;;;;4.82;2.35;;;;;;;;;;6205229;28;20046;-80
2022/09/16 06:47:41;;;;;;;6.20;2.47;;;;;;;;;;6181089;28;20154;-80
2022/09/16 06:50:43;;;;;;;5.70;2.00;;;;;;;;;;6184634;28;20046;-80
2022/09/16 06:53:45;;;;;;;6.63;2.30;;;;;;;;;;6208512;28;20051;-80
2022/09/16 06:56:48;;;;;;;8.95;3.40;;;;;;;;;;6186298;28;20125;-79
2022/09/16 06:59:53;;;;;;;5.00;2.10;;;;;;;;;;6192703;28;20061;-80
2022/09/16 07:02:54;;;;;;;4.22;2.25;;;;;;;;;;6204124;28;20610;-80
2022/09/16 07:06:00;;;;;;;5.47;2.10;;;;;;;;;;6209592;28;20044;-80
2022/09/16 07:09:02;;;;;;;5.13;2.10;;;;;;;;;;6175309;28;20806;-80
2022/09/16 07:12:08;;;;;;;3.90;2.72;;;;;;;;;;6197105;28;21038;-81
2022/09/16 07:15:10;;;;;;;7.88;3.08;;;;;;;;;;6197251;28;20302;-79
2022/09/16 07:18:15;;;;;;;5.05;3.33;;;;;;;;;;6216609;28;20120;-79
2022/09/16 07:21:23;;;;;;;8.00;3.70;;;;;;;;;;6216711;28;20046;-82
2022/09/16 07:24:25;;;;;;;5.85;4.10;;;;;;;;;;6194883;28;20041;-79
2022/09/16 07:27:28;;;;;;;9.85;4.90;;;;;;;;;;6203316;28;20400;-79
2022/09/16 07:30:33;;;;;;;8.73;3.25;;;;;;;;;;6189019;28;20046;-79
2022/09/16 07:33:36;;;;;;;5.68;3.20;;;;;;;;;;6203705;28;20053;-79
2022/09/16 07:36:46;;;;;;;3.85;2.60;;;;;;;;;;6203140;28;20049;-80
2022/09/16 07:39:49;;;;;;;5.22;2.47;;;;;;;;;;6204274;28;20159;-80
2022/09/16 07:42:51;;;;;;;;;;;;;;;;;;6213625;28;20057;-80
2022/09/16 07:45:56;;;;;;;4.60;2.20;;;;;;;;;;6212240;28;19921;-81
2022/09/16 07:48:59;;;;;;;4.55;2.00;;;;;;;;;;6211506;28;20054;-80
2022/09/16 07:52:01;;;;;;;3.55;2.45;;;;;;;;;;6213334;28;20057;-80
2022/09/16 07:55:03;;;;;;;6.55;2.63;;;;;;;;;;6222027;28;20521;-81
2022/09/16 07:58:04;;;;;;;5.05;2.83;;;;;;;;;;6224097;28;20189;-80
2022/09/16 08:01:07;;;;;;;6.35;2.45;;;;;;;;;;6227021;28;20500;-80
2022/09/16 08:04:09;;;;;;;3.20;2.42;;;;;;;;;;6205380;28;20511;-80
2022/09/16 08:07:11;;;;;;;5.47;2.78;;;;;;;;;;6195994;28;20050;-81
2022/09/16 08:10:12;;;;;;;6.60;2.70;;;;;;;;;;6200429;28;20057;-80
2022/09/16 08:13:14;;;;;;;3.72;2.63;;;;;;;;;;6178723;28;20648;-80
2022/09/16 08:16:19;;;;;;;5.60;3.00;;;;;;;;;;6180201;28;20069;-81
2022/09/16 08:19:22;;;;;;;6.57;3.30;;;;;;;;;;6190095;28;20058;-81
2022/09/16 08:22:24;;;;;;;4.72;2.95;;;;;;;;;;6182593;28;20552;-80
2022/09/16 08:25:26;;;;;;;6.27;3.67;;;;;;;;;;6178089;28;20100;-80
2022/09/16 08:28:28;;;;;;;8.35;3.53;;;;;;;;;;6166324;28;20046;-81
2022/09/16 08:31:46;;;;;;;15.07;5.30;;;;;;;;;;6181254;28;20061;-80
2022/09/16 08:34:48;;;;;;;7.95;3.78;;;;;;;;;;6183146;28;20053;-80
2022/09/16 08:37:50;;;;;;;5.60;3.60;;;;;;;;;;6182204;28;20046;-81
2022/09/16 08:40:57;;;;;;;7.03;3.35;;;;;;;;;;6180582;28;20496;-81
2022/09/16 08:44:25;;;;;;;6.18;3.20;;;;;;;;;;6188140;28;20157;-81
2022/09/16 08:48:30;;;;;;;5.53;3.30;;;;;;;;;;6186327;28;20464;-80
2022/09/16 08:51:33;;;;;;;4.43;2.63;;;;;;;;;;6179702;28;20204;-80
2022/09/16 08:54:42;;;;;;;9.48;3.40;;;;;;;;;;6175781;28;20065;-80
2022/09/16 08:57:55;;;;;;;4.72;3.30;;;;;;;;;;6206473;28;20509;-80
2022/09/16 09:01:05;;;;;;;4.53;3.30;;;;;;;;;;6200438;28;20046;-80
2022/09/16 09:04:07;;;;;;;5.50;3.28;;;;;;;;;;6187401;28;20046;-80
2022/09/16 09:07:39;;;;;;;4.93;3.88;;;;;;;;;;6184100;28;20050;-80
2022/09/16 09:10:52;;;;;;;4.68;3.38;;;;;;;;;;6185628;28;20135;-80
2022/09/16 09:14:02;;;;;;;3.47;3.17;;;;;;;;;;6186352;28;20056;-80
2022/09/16 09:17:15;;;;;;;3.60;3.30;;;;;;;;;;6197162;28;20462;-80
2022/09/16 09:20:35;;;;;;;5.20;3.58;;;;;;;;;;6197230;28;20089;-80
2022/09/16 09:23:50;;;;;;;6.85;3.67;;;;;;;;;;6195089;28;20133;-80
2022/09/16 09:27:00;;;;;;;6.35;3.63;;;;;;;;;;6196619;28;20054;-81
2022/09/16 09:30:19;;;;;;;5.63;4.07;;;;;;;;;;6200378;28;20126;-80
2022/09/16 09:33:23;;;;;;;6.35;3.90;;;;;;;;;;6197440;28;20138;-80
2022/09/16 09:37:17;;;;;;;5.00;4.10;;;;;;;;;;6186919;28;20058;-81
2022/09/16 09:40:31;;;;;;;5.07;4.07;;;;;;;;;;6178130;28;20054;-80
2022/09/16 09:43:47;;;;;;;5.55;3.67;;;;;;;;;;6204316;28;20054;-80
2022/09/16 09:46:54;;;;;;;7.13;4.50;;;;;;;;;;6220458;28;22539;-80
2022/09/16 09:50:01;;;;;;;8.10;4.15;;;;;;;;;;6207920;28;20056;-80
2022/09/16 09:53:24;;;;;;;3.20;2.83;;;;;;;;;;6216113;28;20068;-81
2022/09/16 09:56:40;;;;;;;6.25;4.13;;;;;;;;;;6186973;28;20038;-80
2022/09/16 09:59:48;;;;;;;4.78;3.20;;;;;;;;;;6182182;28;20043;-80
2022/09/16 10:02:50;;;;;;;4.03;2.72;;;;;;;;;;6183486;28;20089;-80
2022/09/16 10:05:52;;;;;;;4.57;2.22;;;;;;;;;;6182546;28;20085;-80
2022/09/16 10:08:56;;;;;;;3.40;2.38;;;;;;;;;;6205793;28;20111;-80
2022/09/16 10:11:59;;;;;;;3.80;2.10;;;;;;;;;;6200205;28;20045;-80
2022/09/16 10:15:03;;;;;;;2.88;2.30;;;;;;;;;;6197850;28;20112;-81
2022/09/16 10:18:22;;;;;;;4.68;2.28;;;;;;;;;;6174903;28;20042;-80
2022/09/16 10:21:24;;;;;;;4.05;1.73;;;;;;;;;;6217709;28;20712;-80
2022/09/16 10:24:33;;;;;;;3.55;1.77;;;;;;;;;;6197405;28;21473;-81
2022/09/16 10:27:37;;;;;;;4.05;2.03;;;;;;;;;;6203868;28;20042;-80
2022/09/16 10:30:57;;;;;;;2.72;1.90;;;;;;;;;;6224704;28;22060;-81
2022/09/16 10:34:00;;;;;;;2.63;1.80;;;;;;;;;;6170680;28;20443;-80
2022/09/16 10:37:22;;;;;;;2.33;1.83;;;;;;;;;;6187607;28;20051;-80
2022/09/16 10:40:25;;;;;;;3.90;2.38;;;;;;;;;;6189243;28;20064;-81
2022/09/16 10:43:29;;;;;;;4.90;2.35;;;;;;;;;;6184745;28;20425;-81
2022/09/16 10:46:32;;;;;;;2.53;2.33;;;;;;;;;;6196216;28;20046;-80
2022/09/16 10:49:47;;;;;;;2.20;1.85;;;;;;;;;;6174584;28;20050;-80
2022/09/16 10:52:49;;;;;;;2.45;2.25;;;;;;;;;;6208043;28;20050;-80
2022/09/16 10:55:56;;;;;;;4.35;2.33;;;;;;;;;;6211142;28;20045;-81
2022/09/16 10:59:04;;;;;;;2.28;1.75;;;;;;;;;;6227107;28;20528;-79
2022/09/16 11:02:20;;;;;;;2.67;1.73;;;;;;;;;;6215500;28;20050;-80
2022/09/16 11:06:07;;;;;;;2.35;1.85;;;;;;;;;;6188270;28;22095;-80
2022/09/16 11:09:20;;;;;;;2.97;1.67;;;;;;;;;;6203743;28;20145;-80
2022/09/16 11:12:57;;;;;;;4.13;1.50;;;;;;;;;;6203543;28;20124;-80
2022/09/16 11:16:18;;;;;;;1.25;1.10;;;;;;;;;;6184598;28;20141;-80
2022/09/16 11:19:37;;;;;;;1.48;0.98;;;;;;;;;;6207252;28;20106;-80
2022/09/16 11:23:18;;;;;;;1.30;1.20;;;;;;;;;;6186960;28;20166;-80
2022/09/16 11:26:36;;;;;;;2.08;1.20;;;;;;;;;;6180121;28;20065;-80
2022/09/16 11:29:53;;;;;;;1.25;0.90;;;;;;;;;;6183375;28;20053;-79
2022/09/16 11:33:14;;;;;;;1.63;1.00;;;;;;;;;;6196769;28;20046;-80
2022/09/16 11:36:17;;;;;;;1.65;0.80;;;;;;;;;;6200202;28;20434;-81
2022/09/16 11:39:37;;;;;;;2.35;1.00;;;;;;;;;;6188229;28;20070;-80
2022/09/16 11:42:41;;;;;;;2.83;1.20;;;;;;;;;;6177766;28;20047;-80
2022/09/16 11:46:09;;;;;;;3.95;1.08;;;;;;;;;;6195489;28;20137;-81
2022/09/16 11:49:44;;;;;;;1.80;1.20;;;;;;;;;;6194957;28;20046;-81
2022/09/16 11:53:04;;;;;;;1.48;1.20;;;;;;;;;;6171254;28;20137;-80
2022/09/16 11:56:17;;;;;;;1.17;1.17;;;;;;;;;;6195159;28;20047;-81
2022/09/16 11:59:34;;;;;;;2.42;1.30;;;;;;;;;;6209335;28;20080;-80
2022/09/16 12:02:36;;;;;;;1.85;1.10;;;;;;;;;;6184715;28;20046;-80
2022/09/16 12:05:52;;;;;;;2.00;1.42;;;;;;;;;;6190733;28;20043;-80
2022/09/16 12:08:59;;;;;;;1.50;1.10;;;;;;;;;;6192013;28;20077;-80
2022/09/16 12:12:10;;;;;;;2.28;1.30;;;;;;;;;;6182311;28;20050;-80
2022/09/16 12:15:42;;;;;;;3.20;0.90;;;;;;;;;;6207296;28;20049;-80
2022/09/16 12:18:51;;;;;;;3.13;1.00;;;;;;;;;;6189039;28;20153;-80
2022/09/16 12:22:03;;;;;;;1.10;0.90;;;;;;;;;;6178877;28;20062;-80
2022/09/16 12:25:13;;;;;;;1.45;0.90;;;;;;;;;;6187365;28;20365;-80
2022/09/16 12:28:31;;;;;;;1.95;1.00;;;;;;;;;;6186374;28;20078;-80
2022/09/16 12:32:19;;;;;;;1.85;1.00;;;;;;;;;;6195761;28;20051;-80
2022/09/16 12:35:50;;;;;;;0.77;0.75;;;;;;;;;;6197092;28;20043;-81
2022/09/16 12:38:52;;;;;;;1.88;0.88;;;;;;;;;;6223803;28;20049;-81
2022/09/16 12:42:46;;;;;;;0.90;0.77;;;;;;;;;;6219707;28;20117;-81
2022/09/16 12:45:53;;;;;;;1.27;0.60;;;;;;;;;;6216929;28;20060;-81
2022/09/16 12:49:30;;;;;;;1.38;0.80;;;;;;;;;;6216887;28;20055;-81
2022/09/16 12:53:13;;;;;;;2.03;0.60;;;;;;;;;;6203610;28;20121;-80
2022/09/16 12:56:48;;;;;;;1.80;0.77;;;;;;;;;;6187235;28;20042;-85
2022/09/16 13:00:06;;;;;;;2.20;0.70;;;;;;;;;;6181025;28;20085;-83
2022/09/16 13:03:16;;;;;;;2.25;0.70;;;;;;;;;;6190749;28;20050;-83
2022/09/16 13:06:30;;;;;;;1.23;0.80;;;;;;;;;;6211618;28;20042;-84
2022/09/16 13:09:40;;;;;;;1.85;0.68;;;;;;;;;;6200436;28;20581;-83
2022/09/16 13:12:53;;;;;;;1.20;0.63;;;;;;;;;;6207140;28;20046;-87
2022/09/16 13:15:59;;;;;;;0.90;0.70;;;;;;;;;;6191686;28;20046;-83
2022/09/16 13:19:24;;;;;;;1.25;0.50;;;;;;;;;;6195228;28;20046;-84
2022/09/16 13:22:35;;;;;;;3.22;0.73;;;;;;;;;;6198017;28;20050;-86
2022/09/16 13:25:58;;;;;;;2.42;0.63;;;;;;;;;;6193683;28;20057;-84
2022/09/16 13:28:59;;;;;;;1.13;0.30;;;;;;;;;;6201550;28;20119;-85
2022/09/16 13:32:02;;;;;;;0.30;0.30;;;;;;;;;;6194332;28;20462;-83
2022/09/16 13:35:22;;;;;;;0.68;0.40;;;;;;;;;;6174480;28;20050;-82
2022/09/16 13:38:35;;;;;;;1.20;0.65;;;;;;;;;;6197186;28;20058;-81
2022/09/16 13:41:38;;;;;;;1.55;0.73;;;;;;;;;;6188677;28;20726;-82
2022/09/16 13:44:41;;;;;;;;;;;;;;;;;;6203556;28;20046;-83
2022/09/16 13:47:48;;;;;;;2.40;0.50;;;;;;;;;;6209614;28;20640;-82
2022/09/16 13:50:53;;;;;;;0.82;0.50;;;;;;;;;;6221121;28;20129;-83
2022/09/16 13:54:01;;;;;;;0.40;0.40;;;;;;;;;;6211315;28;20071;-83
2022/09/16 13:57:20;;;;;;;0.50;0.40;;;;;;;;;;6216824;28;20049;-84
2022/09/16 14:00:36;;;;;;;0.95;0.40;;;;;;;;;;6216701;28;20057;-82
2022/09/16 14:03:51;;;;;;;0.60;0.50;;;;;;;;;;6227778;28;20500;-83
2022/09/16 14:07:22;;;;;;;0.40;0.40;;;;;;;;;;6218768;28;20157;-84
2022/09/16 14:10:43;;;;;;;0.40;0.40;;;;;;;;;;6186929;28;20050;-83
2022/09/16 14:13:54;;;;;;;0.32;0.32;;;;;;;;;;6208832;28;20042;-84
2022/09/16 14:17:16;;;;;;;1.92;0.50;;;;;;;;;;6215287;28;20054;-83
2022/09/16 14:20:21;;;;;;;0.38;0.32;;;;;;;;;;6199280;28;20176;-82
2022/09/16 14:23:24;;;;;;;0.75;0.60;;;;;;;;;;6181766;28;20127;-83
2022/09/16 14:26:26;;;;;;;1.23;0.40;;;;;;;;;;6190059;28;20073;-86
2022/09/16 14:29:27;;;;;;;1.92;0.60;;;;;;;;;;6194069;28;20055;-83
2022/09/16 14:32:35;;;;;;;1.58;0.50;;;;;;;;;;6207482;28;20054;-88
2022/09/16 14:35:44;;;;;;;0.88;0.63;;;;;;;;;;6211438;28;20057;-82
2022/09/16 14:38:55;;;;;;;1.85;0.50;;;;;;;;;;6191576;28;20051;-83
2022/09/16 14:42:02;;;;;;;0.40;0.40;;;;;;;;;;6187732;28;20064;-82
2022/09/16 14:45:05;;;;;;;0.50;0.50;;;;;;;;;;6187882;28;20109;-82
2022/09/16 14:48:08;;;;;;;0.40;0.40;;;;;;;;;;6189011;28;20097;-83
2022/09/16 14:51:23;;;;;;;0.50;0.50;;;;;;;;;;6198661;28;20505;-82
2022/09/16 14:54:26;;;;;;;1.02;0.70;;;;;;;;;;6186179;28;20108;-84
2022/09/16 14:57:29;;;;;;;0.40;0.38;;;;;;;;;;6197276;28;20472;-85
2022/09/16 15:00:43;;;;;;;0.65;0.57;;;;;;;;;;6193814;28;20065;-82
2022/09/16 15:03:44;;;;;;;1.42;0.50;;;;;;;;;;6183680;28;20119;-83
2022/09/16 15:06:53;;;;;;;1.55;0.40;;;;;;;;;;6193370;28;20050;-82
2022/09/16 15:10:20;;;;;;;0.52;0.43;;;;;;;;;;6205843;28;20090;-86
2022/09/16 15:13:28;;;;;;;0.88;0.35;;;;;;;;;;6202345;28;20046;-83
2022/09/16 15:16:31;;;;;;;0.38;0.35;;;;;;;;;;6178412;28;20156;-84
2022/09/16 15:19:35;;;;;;;0.50;0.30;;;;;;;;;;6191565;28;20127;-84
2022/09/16 15:22:38;;;;;;;2.25;0.30;;;;;;;;;;6189365;28;20176;-82
2022/09/16 15:25:52;;;;;;;0.85;0.30;;;;;;;;;;6175782;28;20121;-85
2022/09/16 15:29:02;;;;;;;0.38;0.20;;;;;;;;;;6190997;28;20390;-85
2022/09/16 15:32:22;;;;;;;0.32;0.30;;;;;;;;;;6188669;28;20061;-83
2022/09/16 15:35:27;;;;;;;1.10;0.30;;;;;;;;;;6199231;28;20042;-82
2022/09/16 15:38:32;;;;;;;1.05;0.20;;;;;;;;;;6165184;28;20137;-82
2022/09/16 15:41:33;;;;;;;1.67;0.40;;;;;;;;;;6182757;28;20054;-82
2022/09/16 15:44:37;;;;;;;0.20;0.20;;;;;;;;;;6181353;28;20042;-82
2022/09/16 15:47:53;;;;;;;0.35;0.20;;;;;;;;;;6198460;28;20315;-82
2022/09/16 15:51:20;;;;;;;0.30;0.20;;;;;;;;;;6189866;28;20050;-83
2022/09/16 15:54:36;;;;;;;0.85;0.60;;;;;;;;;;6194060;28;20053;-83
2022/09/16 15:57:42;;;;;;;0.75;0.75;;;;;;;;;;6200505;28;20092;-83
2022/09/16 16:01:16;;;;;;;0.98;0.60;;;;;;;;;;6163596;28;20054;-85
2022/09/16 16:04:26;;;;;;;1.02;0.80;;;;;;;;;;6194358;28;20038;-83
2022/09/16 16:07:42;;;;;;;1.50;0.68;;;;;;;;;;6201715;28;20128;-82
2022/09/16 16:11:07;;;;;;;0.88;0.60;;;;;;;;;;6205317;28;20521;-81
2022/09/16 16:14:12;;;;;;;3.95;2.78;;;;;;;;;;6215813;28;20054;-81
2022/09/16 16:17:20;;;;;;;3.70;2.40;;;;;;;;;;6208049;28;20053;-83
2022/09/16 16:20:22;;;;;;;2.65;1.30;;;;;;;;;;6201210;28;20047;-81
2022/09/16 16:23:24;;;;;;;4.47;2.53;;;;;;;;;;6220640;28;20050;-83
2022/09/16 16:26:26;;;;;;;3.60;3.08;;;;;;;;;;6210560;28;20504;-83
2022/09/16 16:29:28;;;;;;;1.75;1.50;;;;;;;;;;6219599;28;20069;-86
2022/09/16 16:32:30;;;;;;;1.65;1.55;;;;;;;;;;6215230;28;20137;-84
2022/09/16 16:35:32;;;;;;;4.88;2.30;;;;;;;;;;6213542;28;20058;-82
2022/09/16 16:38:34;;;;;;;2.70;2.50;;;;;;;;;;6216747;28;20046;-84
2022/09/16 16:41:35;;;;;;;2.75;2.05;;;;;;;;;;6196240;28;20116;-80
2022/09/16 16:44:38;;;;;;;5.40;3.97;;;;;;;;;;6184361;28;20066;-82
2022/09/16 16:47:40;;;;;;;4.80;3.80;;;;;;;;;;6184748;28;20056;-82
2022/09/16 16:50:42;;;;;;;3.75;3.35;;;;;;;;;;6213592;28;20585;-82
2022/09/16 16:53:48;;;;;;;2.38;2.08;;;;;;;;;;6241126;28;20046;-82
2022/09/16 16:56:50;;;;;;;2.30;2.05;;;;;;;;;;6235872;28;20157;-83
2022/09/16 16:59:51;;;;;;;4.30;3.25;;;;;;;;;;6217737;28;20133;-83
2022/09/16 17:02:53;;;;;;;2.40;2.20;;;;;;;;;;6198962;28;20181;-84
2022/09/16 17:05:55;;;;;;;5.60;3.28;;;;;;;;;;6185100;28;20072;-80
2022/09/16 17:08:57;;;;;;;5.53;3.50;;;;;;;;;;6216453;28;20044;-80
2022/09/16 17:11:59;;;;;;;4.05;3.03;;;;;;;;;;6188012;28;20065;-80
2022/09/16 17:15:02;;;;;;;3.28;2.83;;;;;;;;;;6185053;28;20046;-80
2022/09/16 17:18:03;;;;;;;4.25;3.40;;;;;;;;;;6183192;28;20531;-80
2022/09/16 17:21:10;;;;;;;4.53;3.25;;;;;;;;;;6193949;28;20121;-80
2022/09/16 17:24:12;;;;;;;3.30;2.60;;;;;;;;;;6181840;28;20111;-79
2022/09/16 17:27:18;;;;;;;2.83;2.60;;;;;;;;;;6203464;28;20611;-80
2022/09/16 17:30:20;;;;;;;2.67;2.35;;;;;;;;;;6206701;28;20053;-80
2022/09/16 17:33:23;;;;;;;2.67;2.20;;;;;;;;;;6193209;28;20510;-80
2022/09/16 17:36:25;;;;;;;5.13;2.63;;;;;;;;;;6195170;28;20046;-80
2022/09/16 17:39:26;;;;;;;2.85;2.28;;;;;;;;;;6208416;28;20046;-81
2022/09/16 17:42:28;;;;;;;3.15;2.70;;;;;;;;;;6210488;28;20065;-80
2022/09/16 17:45:33;;;;;;;7.15;6.43;;;;;;;;;;6218525;28;20068;-80
2022/09/16 17:48:36;;;;;;;26.27;15.02;;;;;;;;;;6181425;28;20058;-80
2022/09/16 17:51:38;;;;;;;11.50;7.85;;;;;;;;;;6219588;28;20041;-82
2022/09/16 17:54:40;;;;;;;6.82;5.40;;;;;;;;;;6212746;28;20058;-82
2022/09/16 17:57:45;;;;;;;;;;;;;;;;;;6217437;28;20416;-83
2022/09/16 18:00:48;;;;;;;3.10;2.28;;;;;;;;;;6180287;28;20068;-82
2022/09/16 18:03:53;;;;;;;4.60;3.20;;;;;;;;;;6192295;28;20058;-82
2022/09/16 18:06:54;;;;;;;4.65;2.83;;;;;;;;;;6190323;28;20101;-82
2022/09/16 18:09:56;;;;;;;2.92;2.20;;;;;;;;;;6213191;28;20140;-82
2022/09/16 18:12:58;;;;;;;3.20;2.90;;;;;;;;;;6199273;28;20046;-82
2022/09/16 18:16:09;;;;;;;3.53;2.50;;;;;;;;;;6186698;28;20137;-81
2022/09/16 18:19:11;;;;;;;4.93;4.40;;;;;;;;;;6199224;28;20481;-83
2022/09/16 18:22:13;;;;;;;2.67;2.00;;;;;;;;;;6209702;28;20065;-82
2022/09/16 18:25:19;;;;;;;2.83;2.30;;;;;;;;;;6201064;28;20157;-83
2022/09/16 18:28:22;;;;;;;4.45;1.90;;;;;;;;;;6192610;28;20047;-84
2022/09/16 18:31:25;;;;;;;2.20;1.80;;;;;;;;;;6208314;28;20077;-80
2022/09/16 18:34:27;;;;;;;2.30;1.58;;;;;;;;;;6215724;28;20052;-80
2022/09/16 18:37:34;;;;;;;5.55;3.58;;;;;;;;;;6202631;28;20095;-79
2022/09/16 18:40:36;;;;;;;6.47;4.10;;;;;;;;;;6214787;28;20050;-80
2022/09/16 18:43:44;;;;;;;4.85;2.60;;;;;;;;;;6208798;28;20053;-79
2022/09/16 18:46:46;;;;;;;5.07;1.98;;;;;;;;;;6191583;28;20061;-80
2022/09/16 18:49:48;;;;;;;4.13;1.98;;;;;;;;;;6191933;28;20129;-79
2022/09/16 18:52:50;;;;;;;6.30;2.03;;;;;;;;;;6203180;28;20101;-79
2022/09/16 18:55:52;;;;;;;6.78;2.55;;;;;;;;;;6181098;28;21834;-79